sensor_id;sensor_type;location;lat;lon;timestamp;P1;durP1;ratioP1;P2;durP2;ratioP2
12535;SDS011;6334;48.696;2.114;2023-04-01T00:00:55;8.17;;;2.73;;
12535;SDS011;6334;48.696;2.114;2023-04-01T00:03:25;6.07;;;2.30;;
12535;SDS011;6334;48.696;2.114;2023-04-01T00:05:56;9.30;;;2.60;;
12535;SDS011;6334;48.696;2.114;2023-04-01T00:08:29;8.07;;;2.47;;
12535;SDS011;6334;48.696;2.114;2023-04-01T00:11:00;6.83;;;2.40;;
12535;SDS011;6334;48.696;2.114;2023-04-01T00:13:30;7.40;;;2.33;;
12535;SDS011;6334;48.696;2.114;2023-04-01T00:16:01;7.17;;;2.60;;
12535;SDS011;6334;48.696;2.114;2023-04-01T00:18:31;6.27;;;2.40;;
12535;SDS011;6334;48.696;2.114;2023-04-01T00:21:01;8.27;;;2.87;;
12535;SDS011;6334;48.696;2.114;2023-04-01T00:23:32;7.17;;;2.53;;
12535;SDS011;6334;48.696;2.114;2023-04-01T00:26:03;7.20;;;2.40;;
12535;SDS011;6334;48.696;2.114;2023-04-01T00:28:33;5.07;;;1.87;;
12535;SDS011;6334;48.696;2.114;2023-04-01T00:31:04;6.13;;;2.63;;
12535;SDS011;6334;48.696;2.114;2023-04-01T00:33:34;10.13;;;2.70;;
12535;SDS011;6334;48.696;2.114;2023-04-01T00:36:11;8.00;;;2.90;;
12535;SDS011;6334;48.696;2.114;2023-04-01T00:38:41;8.50;;;2.77;;
12535;SDS011;6334;48.696;2.114;2023-04-01T00:41:11;7.90;;;2.70;;
12535;SDS011;6334;48.696;2.114;2023-04-01T00:43:41;8.00;;;2.53;;
12535;SDS011;6334;48.696;2.114;2023-04-01T00:46:11;7.67;;;2.97;;
12535;SDS011;6334;48.696;2.114;2023-04-01T00:48:42;7.33;;;2.67;;
12535;SDS011;6334;48.696;2.114;2023-04-01T00:51:14;10.90;;;2.80;;
12535;SDS011;6334;48.696;2.114;2023-04-01T00:53:52;6.43;;;2.43;;
12535;SDS011;6334;48.696;2.114;2023-04-01T00:56:30;6.47;;;2.37;;
12535;SDS011;6334;48.696;2.114;2023-04-01T00:59:04;6.27;;;2.17;;
12535;SDS011;6334;48.696;2.114;2023-04-01T01:01:34;4.47;;;2.07;;
12535;SDS011;6334;48.696;2.114;2023-04-01T01:04:05;6.27;;;2.13;;
12535;SDS011;6334;48.696;2.114;2023-04-01T01:11:50;4.70;;;1.83;;
12535;SDS011;6334;48.696;2.114;2023-04-01T01:14:43;5.37;;;2.47;;
12535;SDS011;6334;48.696;2.114;2023-04-01T01:22:52;5.40;;;2.20;;
12535;SDS011;6334;48.696;2.114;2023-04-01T01:28:02;4.90;;;1.80;;
12535;SDS011;6334;48.696;2.114;2023-04-01T01:33:20;5.30;;;1.83;;
12535;SDS011;6334;48.696;2.114;2023-04-01T01:35:48;6.33;;;2.00;;
12535;SDS011;6334;48.696;2.114;2023-04-01T01:38:19;5.23;;;1.73;;
12535;SDS011;6334;48.696;2.114;2023-04-01T01:40:49;4.23;;;1.83;;
12535;SDS011;6334;48.696;2.114;2023-04-01T01:43:21;5.33;;;1.97;;
12535;SDS011;6334;48.696;2.114;2023-04-01T01:45:51;7.77;;;2.20;;
12535;SDS011;6334;48.696;2.114;2023-04-01T01:48:19;8.80;;;2.87;;
12535;SDS011;6334;48.696;2.114;2023-04-01T01:50:49;6.07;;;1.80;;
12535;SDS011;6334;48.696;2.114;2023-04-01T01:53:19;7.00;;;2.50;;
12535;SDS011;6334;48.696;2.114;2023-04-01T01:55:50;4.13;;;2.30;;
12535;SDS011;6334;48.696;2.114;2023-04-01T01:58:33;6.90;;;1.87;;
12535;SDS011;6334;48.696;2.114;2023-04-01T02:01:05;7.03;;;2.17;;
12535;SDS011;6334;48.696;2.114;2023-04-01T02:03:35;6.20;;;1.77;;
12535;SDS011;6334;48.696;2.114;2023-04-01T02:06:09;6.07;;;1.77;;
12535;SDS011;6334;48.696;2.114;2023-04-01T02:08:51;7.73;;;2.50;;
12535;SDS011;6334;48.696;2.114;2023-04-01T02:11:22;4.93;;;1.70;;
12535;SDS011;6334;48.696;2.114;2023-04-01T02:13:58;7.23;;;2.37;;
12535;SDS011;6334;48.696;2.114;2023-04-01T02:16:33;4.13;;;1.70;;
12535;SDS011;6334;48.696;2.114;2023-04-01T02:19:02;6.67;;;1.73;;
12535;SDS011;6334;48.696;2.114;2023-04-01T02:21:33;5.53;;;2.10;;
12535;SDS011;6334;48.696;2.114;2023-04-01T02:24:05;6.53;;;1.83;;
12535;SDS011;6334;48.696;2.114;2023-04-01T02:26:34;5.63;;;1.80;;
12535;SDS011;6334;48.696;2.114;2023-04-01T02:29:04;6.47;;;1.93;;
12535;SDS011;6334;48.696;2.114;2023-04-01T02:31:35;2.47;;;1.83;;
12535;SDS011;6334;48.696;2.114;2023-04-01T02:34:05;2.67;;;1.63;;
12535;SDS011;6334;48.696;2.114;2023-04-01T02:36:36;4.67;;;2.07;;
12535;SDS011;6334;48.696;2.114;2023-04-01T02:39:06;4.77;;;1.73;;
12535;SDS011;6334;48.696;2.114;2023-04-01T02:41:40;2.93;;;1.60;;
12535;SDS011;6334;48.696;2.114;2023-04-01T02:44:10;4.67;;;1.57;;
12535;SDS011;6334;48.696;2.114;2023-04-01T02:46:40;5.80;;;2.40;;
12535;SDS011;6334;48.696;2.114;2023-04-01T02:49:11;4.67;;;2.30;;
12535;SDS011;6334;48.696;2.114;2023-04-01T02:51:41;5.67;;;2.33;;
12535;SDS011;6334;48.696;2.114;2023-04-01T02:54:11;5.00;;;1.80;;
12535;SDS011;6334;48.696;2.114;2023-04-01T02:56:42;5.30;;;1.90;;
12535;SDS011;6334;48.696;2.114;2023-04-01T02:59:12;7.73;;;1.60;;
12535;SDS011;6334;48.696;2.114;2023-04-01T03:01:43;5.67;;;2.50;;
12535;SDS011;6334;48.696;2.114;2023-04-01T03:04:13;5.37;;;1.70;;
12535;SDS011;6334;48.696;2.114;2023-04-01T03:06:44;7.33;;;1.80;;
12535;SDS011;6334;48.696;2.114;2023-04-01T03:09:14;4.90;;;1.90;;
12535;SDS011;6334;48.696;2.114;2023-04-01T03:11:45;3.17;;;1.40;;
12535;SDS011;6334;48.696;2.114;2023-04-01T03:14:15;4.33;;;1.90;;
12535;SDS011;6334;48.696;2.114;2023-04-01T03:16:46;4.23;;;1.63;;
12535;SDS011;6334;48.696;2.114;2023-04-01T03:19:16;4.30;;;1.43;;
12535;SDS011;6334;48.696;2.114;2023-04-01T03:21:46;4.43;;;1.80;;
12535;SDS011;6334;48.696;2.114;2023-04-01T03:24:17;4.70;;;1.57;;
12535;SDS011;6334;48.696;2.114;2023-04-01T03:26:47;5.33;;;1.83;;
12535;SDS011;6334;48.696;2.114;2023-04-01T03:29:18;5.50;;;2.43;;
12535;SDS011;6334;48.696;2.114;2023-04-01T03:31:48;3.50;;;1.50;;
12535;SDS011;6334;48.696;2.114;2023-04-01T03:34:18;4.63;;;1.77;;
12535;SDS011;6334;48.696;2.114;2023-04-01T03:36:48;5.13;;;1.87;;
12535;SDS011;6334;48.696;2.114;2023-04-01T03:39:19;6.43;;;1.70;;
12535;SDS011;6334;48.696;2.114;2023-04-01T03:41:49;5.03;;;1.43;;
12535;SDS011;6334;48.696;2.114;2023-04-01T03:44:20;2.23;;;1.47;;
12535;SDS011;6334;48.696;2.114;2023-04-01T03:46:49;4.83;;;1.60;;
12535;SDS011;6334;48.696;2.114;2023-04-01T03:49:20;6.90;;;2.13;;
12535;SDS011;6334;48.696;2.114;2023-04-01T03:51:50;6.43;;;1.60;;
12535;SDS011;6334;48.696;2.114;2023-04-01T03:54:21;6.53;;;2.47;;
12535;SDS011;6334;48.696;2.114;2023-04-01T03:56:51;5.57;;;2.03;;
12535;SDS011;6334;48.696;2.114;2023-04-01T03:59:22;5.47;;;1.70;;
12535;SDS011;6334;48.696;2.114;2023-04-01T04:01:52;5.13;;;1.93;;
12535;SDS011;6334;48.696;2.114;2023-04-01T04:04:22;7.27;;;1.53;;
12535;SDS011;6334;48.696;2.114;2023-04-01T04:06:53;7.07;;;2.27;;
12535;SDS011;6334;48.696;2.114;2023-04-01T04:09:23;9.77;;;3.17;;
12535;SDS011;6334;48.696;2.114;2023-04-01T04:11:54;8.53;;;2.30;;
12535;SDS011;6334;48.696;2.114;2023-04-01T04:14:23;10.57;;;2.60;;
12535;SDS011;6334;48.696;2.114;2023-04-01T04:16:54;4.27;;;1.83;;
12535;SDS011;6334;48.696;2.114;2023-04-01T04:19:24;3.57;;;1.70;;
12535;SDS011;6334;48.696;2.114;2023-04-01T04:21:55;6.93;;;1.93;;
12535;SDS011;6334;48.696;2.114;2023-04-01T04:24:25;4.13;;;1.70;;
12535;SDS011;6334;48.696;2.114;2023-04-01T04:26:55;7.17;;;2.10;;
12535;SDS011;6334;48.696;2.114;2023-04-01T04:29:25;4.67;;;1.80;;
12535;SDS011;6334;48.696;2.114;2023-04-01T04:31:56;4.30;;;1.93;;
12535;SDS011;6334;48.696;2.114;2023-04-01T04:34:27;3.00;;;1.70;;
12535;SDS011;6334;48.696;2.114;2023-04-01T04:36:57;5.87;;;2.17;;
12535;SDS011;6334;48.696;2.114;2023-04-01T04:39:28;5.47;;;2.23;;
12535;SDS011;6334;48.696;2.114;2023-04-01T04:41:58;3.20;;;1.30;;
12535;SDS011;6334;48.696;2.114;2023-04-01T04:44:29;6.20;;;1.70;;
12535;SDS011;6334;48.696;2.114;2023-04-01T04:46:59;3.00;;;1.63;;
12535;SDS011;6334;48.696;2.114;2023-04-01T04:49:30;2.60;;;1.30;;
12535;SDS011;6334;48.696;2.114;2023-04-01T04:51:59;5.23;;;1.60;;
12535;SDS011;6334;48.696;2.114;2023-04-01T04:54:30;4.53;;;1.63;;
12535;SDS011;6334;48.696;2.114;2023-04-01T04:57:00;4.43;;;1.50;;
12535;SDS011;6334;48.696;2.114;2023-04-01T04:59:30;5.13;;;1.80;;
12535;SDS011;6334;48.696;2.114;2023-04-01T05:02:00;3.97;;;1.73;;
12535;SDS011;6334;48.696;2.114;2023-04-01T05:04:34;3.90;;;1.73;;
12535;SDS011;6334;48.696;2.114;2023-04-01T05:07:01;4.67;;;1.10;;
12535;SDS011;6334;48.696;2.114;2023-04-01T05:09:32;2.93;;;1.37;;
12535;SDS011;6334;48.696;2.114;2023-04-01T05:12:02;1.83;;;0.93;;
12535;SDS011;6334;48.696;2.114;2023-04-01T05:14:33;5.10;;;1.57;;
12535;SDS011;6334;48.696;2.114;2023-04-01T05:17:03;4.73;;;1.30;;
12535;SDS011;6334;48.696;2.114;2023-04-01T05:19:34;3.77;;;1.60;;
12535;SDS011;6334;48.696;2.114;2023-04-01T05:22:04;4.07;;;1.67;;
12535;SDS011;6334;48.696;2.114;2023-04-01T05:24:36;3.33;;;1.67;;
12535;SDS011;6334;48.696;2.114;2023-04-01T05:27:06;6.93;;;1.83;;
12535;SDS011;6334;48.696;2.114;2023-04-01T05:29:37;5.80;;;1.90;;
12535;SDS011;6334;48.696;2.114;2023-04-01T05:32:07;6.63;;;2.13;;
12535;SDS011;6334;48.696;2.114;2023-04-01T05:34:37;5.00;;;1.53;;
12535;SDS011;6334;48.696;2.114;2023-04-01T05:37:07;10.77;;;2.10;;
12535;SDS011;6334;48.696;2.114;2023-04-01T05:39:38;6.23;;;1.83;;
12535;SDS011;6334;48.696;2.114;2023-04-01T05:42:08;5.10;;;1.60;;
12535;SDS011;6334;48.696;2.114;2023-04-01T05:44:38;5.27;;;1.50;;
12535;SDS011;6334;48.696;2.114;2023-04-01T05:47:09;2.63;;;1.27;;
12535;SDS011;6334;48.696;2.114;2023-04-01T05:49:39;4.57;;;1.50;;
12535;SDS011;6334;48.696;2.114;2023-04-01T05:52:10;3.47;;;1.87;;
12535;SDS011;6334;48.696;2.114;2023-04-01T05:54:40;5.37;;;1.77;;
12535;SDS011;6334;48.696;2.114;2023-04-01T05:57:11;3.97;;;1.50;;
12535;SDS011;6334;48.696;2.114;2023-04-01T05:59:40;5.27;;;1.23;;
12535;SDS011;6334;48.696;2.114;2023-04-01T06:02:10;7.80;;;2.47;;
12535;SDS011;6334;48.696;2.114;2023-04-01T06:04:40;3.07;;;0.97;;
12535;SDS011;6334;48.696;2.114;2023-04-01T06:07:15;4.60;;;1.53;;
12535;SDS011;6334;48.696;2.114;2023-04-01T06:09:45;3.80;;;1.50;;
12535;SDS011;6334;48.696;2.114;2023-04-01T06:12:23;4.00;;;1.90;;
12535;SDS011;6334;48.696;2.114;2023-04-01T06:28:53;6.50;;;1.93;;
12535;SDS011;6334;48.696;2.114;2023-04-01T06:31:52;6.83;;;1.87;;
12535;SDS011;6334;48.696;2.114;2023-04-01T06:34:47;6.17;;;1.50;;
12535;SDS011;6334;48.696;2.114;2023-04-01T06:37:28;10.07;;;2.47;;
12535;SDS011;6334;48.696;2.114;2023-04-01T06:42:43;6.07;;;1.73;;
12535;SDS011;6334;48.696;2.114;2023-04-01T06:56:05;6.93;;;1.67;;
12535;SDS011;6334;48.696;2.114;2023-04-01T06:58:36;3.80;;;1.33;;
12535;SDS011;6334;48.696;2.114;2023-04-01T07:01:09;3.80;;;1.77;;
12535;SDS011;6334;48.696;2.114;2023-04-01T07:03:40;3.30;;;1.57;;
12535;SDS011;6334;48.696;2.114;2023-04-01T07:06:16;3.53;;;1.40;;
12535;SDS011;6334;48.696;2.114;2023-04-01T07:08:44;5.43;;;1.73;;
12535;SDS011;6334;48.696;2.114;2023-04-01T07:11:22;4.83;;;1.57;;
12535;SDS011;6334;48.696;2.114;2023-04-01T07:13:51;3.93;;;1.77;;
12535;SDS011;6334;48.696;2.114;2023-04-01T07:16:19;4.43;;;1.67;;
12535;SDS011;6334;48.696;2.114;2023-04-01T07:24:26;4.63;;;1.93;;
12535;SDS011;6334;48.696;2.114;2023-04-01T07:26:57;4.57;;;1.60;;
12535;SDS011;6334;48.696;2.114;2023-04-01T07:29:27;4.83;;;1.33;;
12535;SDS011;6334;48.696;2.114;2023-04-01T07:35:17;5.03;;;1.23;;
12535;SDS011;6334;48.696;2.114;2023-04-01T07:37:51;5.43;;;1.33;;
12535;SDS011;6334;48.696;2.114;2023-04-01T07:43:17;4.73;;;1.40;;
12535;SDS011;6334;48.696;2.114;2023-04-01T07:48:46;4.73;;;1.53;;
12535;SDS011;6334;48.696;2.114;2023-04-01T07:51:23;3.97;;;1.60;;
12535;SDS011;6334;48.696;2.114;2023-04-01T07:56:41;2.77;;;1.23;;
12535;SDS011;6334;48.696;2.114;2023-04-01T08:07:46;2.80;;;1.27;;
12535;SDS011;6334;48.696;2.114;2023-04-01T08:10:32;2.80;;;1.37;;
12535;SDS011;6334;48.696;2.114;2023-04-01T08:13:16;7.10;;;2.20;;
12535;SDS011;6334;48.696;2.114;2023-04-01T08:15:49;3.63;;;1.63;;
12535;SDS011;6334;48.696;2.114;2023-04-01T08:21:10;3.13;;;1.20;;
12535;SDS011;6334;48.696;2.114;2023-04-01T08:23:52;5.97;;;2.10;;
12535;SDS011;6334;48.696;2.114;2023-04-01T08:26:14;4.93;;;1.73;;
12535;SDS011;6334;48.696;2.114;2023-04-01T08:28:46;4.97;;;1.83;;
12535;SDS011;6334;48.696;2.114;2023-04-01T08:31:29;6.57;;;1.77;;
12535;SDS011;6334;48.696;2.114;2023-04-01T08:33:56;5.90;;;1.83;;
12535;SDS011;6334;48.696;2.114;2023-04-01T08:36:29;5.93;;;2.00;;
12535;SDS011;6334;48.696;2.114;2023-04-01T08:39:06;9.20;;;1.93;;
12535;SDS011;6334;48.696;2.114;2023-04-01T08:47:20;4.20;;;1.70;;
12535;SDS011;6334;48.696;2.114;2023-04-01T08:58:37;3.37;;;1.83;;
12535;SDS011;6334;48.696;2.114;2023-04-01T09:07:08;5.30;;;1.47;;
12535;SDS011;6334;48.696;2.114;2023-04-01T09:15:36;6.17;;;2.03;;
12535;SDS011;6334;48.696;2.114;2023-04-01T09:29:15;4.03;;;1.63;;
12535;SDS011;6334;48.696;2.114;2023-04-01T09:32:07;3.77;;;1.90;;
12535;SDS011;6334;48.696;2.114;2023-04-01T09:34:44;2.43;;;1.47;;
12535;SDS011;6334;48.696;2.114;2023-04-01T09:37:26;4.43;;;1.90;;
12535;SDS011;6334;48.696;2.114;2023-04-01T09:40:12;3.40;;;1.47;;
12535;SDS011;6334;48.696;2.114;2023-04-01T09:42:42;4.67;;;1.57;;
12535;SDS011;6334;48.696;2.114;2023-04-01T09:54:03;6.37;;;2.43;;
12535;SDS011;6334;48.696;2.114;2023-04-01T10:07:18;4.00;;;1.33;;
12535;SDS011;6334;48.696;2.114;2023-04-01T10:15:30;2.57;;;1.27;;
12535;SDS011;6334;48.696;2.114;2023-04-01T10:26:51;4.80;;;1.87;;
12535;SDS011;6334;48.696;2.114;2023-04-01T10:29:30;4.77;;;1.47;;
12535;SDS011;6334;48.696;2.114;2023-04-01T10:40:03;3.93;;;1.47;;
12535;SDS011;6334;48.696;2.114;2023-04-01T10:45:37;2.73;;;1.40;;
12535;SDS011;6334;48.696;2.114;2023-04-01T10:48:22;3.50;;;1.40;;
12535;SDS011;6334;48.696;2.114;2023-04-01T10:51:12;3.40;;;1.30;;
12535;SDS011;6334;48.696;2.114;2023-04-01T11:02:12;3.83;;;1.53;;
12535;SDS011;6334;48.696;2.114;2023-04-01T11:13:32;2.13;;;1.13;;
12535;SDS011;6334;48.696;2.114;2023-04-01T11:35:42;4.77;;;1.83;;
12535;SDS011;6334;48.696;2.114;2023-04-01T11:38:40;2.13;;;1.23;;
12535;SDS011;6334;48.696;2.114;2023-04-01T11:43:41;2.43;;;1.43;;
12535;SDS011;6334;48.696;2.114;2023-04-01T11:46:12;2.10;;;1.23;;
12535;SDS011;6334;48.696;2.114;2023-04-01T11:56:56;1.87;;;1.10;;
12535;SDS011;6334;48.696;2.114;2023-04-01T11:59:48;3.03;;;1.40;;
12535;SDS011;6334;48.696;2.114;2023-04-01T12:05:21;5.17;;;1.37;;
12535;SDS011;6334;48.696;2.114;2023-04-01T12:07:53;3.10;;;1.47;;
12535;SDS011;6334;48.696;2.114;2023-04-01T12:10:45;2.70;;;1.33;;
12535;SDS011;6334;48.696;2.114;2023-04-01T12:13:07;2.17;;;1.23;;
12535;SDS011;6334;48.696;2.114;2023-04-01T12:18:32;2.47;;;1.13;;
12535;SDS011;6334;48.696;2.114;2023-04-01T12:32:47;0.60;;;0.60;;
12535;SDS011;6334;48.696;2.114;2023-04-01T12:46:27;4.17;;;1.40;;
12535;SDS011;6334;48.696;2.114;2023-04-01T12:49:05;3.90;;;1.33;;
12535;SDS011;6334;48.696;2.114;2023-04-01T13:03:02;1.27;;;1.17;;
12535;SDS011;6334;48.696;2.114;2023-04-01T13:13:48;3.00;;;1.57;;
12535;SDS011;6334;48.696;2.114;2023-04-01T13:16:19;4.57;;;1.50;;
12535;SDS011;6334;48.696;2.114;2023-04-01T13:18:58;1.47;;;1.37;;
12535;SDS011;6334;48.696;2.114;2023-04-01T13:29:31;3.47;;;1.57;;
12535;SDS011;6334;48.696;2.114;2023-04-01T13:35:04;4.80;;;2.40;;
12535;SDS011;6334;48.696;2.114;2023-04-01T13:37:32;4.17;;;1.23;;
12535;SDS011;6334;48.696;2.114;2023-04-01T13:40:23;2.67;;;1.20;;
12535;SDS011;6334;48.696;2.114;2023-04-01T13:54:00;2.03;;;1.07;;
12535;SDS011;6334;48.696;2.114;2023-04-01T13:56:37;2.43;;;0.70;;
12535;SDS011;6334;48.696;2.114;2023-04-01T14:07:33;2.60;;;0.93;;
12535;SDS011;6334;48.696;2.114;2023-04-01T14:15:25;2.00;;;1.10;;
12535;SDS011;6334;48.696;2.114;2023-04-01T14:21:07;1.43;;;0.73;;
12535;SDS011;6334;48.696;2.114;2023-04-01T14:32:06;2.30;;;0.90;;
12535;SDS011;6334;48.696;2.114;2023-04-01T14:40:24;1.80;;;1.03;;
12535;SDS011;6334;48.696;2.114;2023-04-01T14:48:38;2.73;;;1.60;;
12535;SDS011;6334;48.696;2.114;2023-04-01T14:51:10;5.57;;;3.53;;
12535;SDS011;6334;48.696;2.114;2023-04-01T14:56:38;6.70;;;3.73;;
12535;SDS011;6334;48.696;2.114;2023-04-01T14:59:13;4.60;;;3.20;;
12535;SDS011;6334;48.696;2.114;2023-04-01T15:01:50;1.97;;;1.70;;
12535;SDS011;6334;48.696;2.114;2023-04-01T15:12:54;4.13;;;1.83;;
12535;SDS011;6334;48.696;2.114;2023-04-01T15:31:47;2.23;;;1.13;;
12535;SDS011;6334;48.696;2.114;2023-04-01T15:34:30;3.63;;;1.43;;
12535;SDS011;6334;48.696;2.114;2023-04-01T15:37:16;2.13;;;1.53;;
12535;SDS011;6334;48.696;2.114;2023-04-01T15:45:26;3.10;;;1.00;;
12535;SDS011;6334;48.696;2.114;2023-04-01T15:48:06;3.97;;;1.50;;
12535;SDS011;6334;48.696;2.114;2023-04-01T15:50:44;3.00;;;1.17;;
12535;SDS011;6334;48.696;2.114;2023-04-01T15:56:28;2.37;;;1.20;;
12535;SDS011;6334;48.696;2.114;2023-04-01T15:59:06;2.43;;;1.13;;
12535;SDS011;6334;48.696;2.114;2023-04-01T16:16:07;2.67;;;1.27;;
12535;SDS011;6334;48.696;2.114;2023-04-01T16:24:12;2.23;;;1.50;;
12535;SDS011;6334;48.696;2.114;2023-04-01T16:26:47;2.83;;;1.23;;
12535;SDS011;6334;48.696;2.114;2023-04-01T16:32:04;1.97;;;1.13;;
12535;SDS011;6334;48.696;2.114;2023-04-01T16:34:38;0.90;;;0.83;;
12535;SDS011;6334;48.696;2.114;2023-04-01T16:37:07;2.50;;;0.90;;
12535;SDS011;6334;48.696;2.114;2023-04-01T16:47:36;1.67;;;1.10;;
12535;SDS011;6334;48.696;2.114;2023-04-01T16:50:15;3.10;;;1.33;;
12535;SDS011;6334;48.696;2.114;2023-04-01T16:58:22;2.65;;;1.60;;
12535;SDS011;6334;48.696;2.114;2023-04-01T17:00:48;1.95;;;1.12;;
12535;SDS011;6334;48.696;2.114;2023-04-01T17:03:22;2.03;;;1.73;;
12535;SDS011;6334;48.696;2.114;2023-04-01T17:06:01;2.67;;;1.43;;
12535;SDS011;6334;48.696;2.114;2023-04-01T17:12:13;1.30;;;1.13;;
12535;SDS011;6334;48.696;2.114;2023-04-01T17:14:10;1.42;;;1.12;;
12535;SDS011;6334;48.696;2.114;2023-04-01T17:16:43;2.73;;;1.27;;
12535;SDS011;6334;48.696;2.114;2023-04-01T17:27:23;1.15;;;1.10;;
12535;SDS011;6334;48.696;2.114;2023-04-01T17:30:04;3.16;;;1.29;;
12535;SDS011;6334;48.696;2.114;2023-04-01T17:32:51;2.00;;;1.20;;
12535;SDS011;6334;48.696;2.114;2023-04-01T17:35:31;1.43;;;1.10;;
12535;SDS011;6334;48.696;2.114;2023-04-01T17:44:02;3.33;;;1.60;;
12535;SDS011;6334;48.696;2.114;2023-04-01T17:49:35;3.97;;;1.60;;
12535;SDS011;6334;48.696;2.114;2023-04-01T17:52:17;2.03;;;1.30;;
12535;SDS011;6334;48.696;2.114;2023-04-01T17:54:59;1.77;;;1.30;;
12535;SDS011;6334;48.696;2.114;2023-04-01T17:57:52;3.23;;;1.60;;
12535;SDS011;6334;48.696;2.114;2023-04-01T18:00:23;1.87;;;1.50;;
12535;SDS011;6334;48.696;2.114;2023-04-01T18:06:01;4.23;;;1.43;;
12535;SDS011;6334;48.696;2.114;2023-04-01T18:08:40;1.57;;;1.20;;
12535;SDS011;6334;48.696;2.114;2023-04-01T18:11:16;3.50;;;1.90;;
12535;SDS011;6334;48.696;2.114;2023-04-01T18:22:19;4.50;;;2.00;;
12535;SDS011;6334;48.696;2.114;2023-04-01T18:27:29;2.93;;;1.97;;
12535;SDS011;6334;48.696;2.114;2023-04-01T18:30:07;3.27;;;2.07;;
12535;SDS011;6334;48.696;2.114;2023-04-01T18:32:57;3.20;;;1.70;;
12535;SDS011;6334;48.696;2.114;2023-04-01T18:38:31;5.07;;;2.20;;
12535;SDS011;6334;48.696;2.114;2023-04-01T18:41:10;3.13;;;1.60;;
12535;SDS011;6334;48.696;2.114;2023-04-01T18:43:59;1.97;;;1.50;;
12535;SDS011;6334;48.696;2.114;2023-04-01T18:49:46;4.07;;;2.17;;
12535;SDS011;6334;48.696;2.114;2023-04-01T18:52:16;3.50;;;1.90;;
12535;SDS011;6334;48.696;2.114;2023-04-01T19:00:20;3.47;;;2.13;;
12535;SDS011;6334;48.696;2.114;2023-04-01T19:02:58;4.03;;;1.93;;
12535;SDS011;6334;48.696;2.114;2023-04-01T19:08:25;4.67;;;2.27;;
12535;SDS011;6334;48.696;2.114;2023-04-01T19:21:58;4.73;;;2.00;;
12535;SDS011;6334;48.696;2.114;2023-04-01T19:30:01;3.40;;;2.10;;
12535;SDS011;6334;48.696;2.114;2023-04-01T19:38:14;7.93;;;2.73;;
12535;SDS011;6334;48.696;2.114;2023-04-01T19:43:30;7.27;;;2.57;;
12535;SDS011;6334;48.696;2.114;2023-04-01T19:54:56;4.17;;;2.33;;
12535;SDS011;6334;48.696;2.114;2023-04-01T20:00:21;4.07;;;2.20;;
12535;SDS011;6334;48.696;2.114;2023-04-01T20:12:00;3.17;;;2.13;;
12535;SDS011;6334;48.696;2.114;2023-04-01T20:14:54;3.37;;;2.00;;
12535;SDS011;6334;48.696;2.114;2023-04-01T20:17:23;4.80;;;2.17;;
12535;SDS011;6334;48.696;2.114;2023-04-01T20:20:15;5.23;;;2.87;;
12535;SDS011;6334;48.696;2.114;2023-04-01T20:25:21;7.03;;;2.30;;
12535;SDS011;6334;48.696;2.114;2023-04-01T20:30:45;3.93;;;2.03;;
12535;SDS011;6334;48.696;2.114;2023-04-01T20:33:26;4.93;;;2.53;;
12535;SDS011;6334;48.696;2.114;2023-04-01T20:36:06;3.20;;;2.13;;
12535;SDS011;6334;48.696;2.114;2023-04-01T20:45:02;5.53;;;2.63;;
12535;SDS011;6334;48.696;2.114;2023-04-01T20:50:51;3.90;;;2.43;;
12535;SDS011;6334;48.696;2.114;2023-04-01T20:53:28;5.23;;;3.20;;
12535;SDS011;6334;48.696;2.114;2023-04-01T20:56:01;4.87;;;2.57;;
12535;SDS011;6334;48.696;2.114;2023-04-01T21:01:25;6.37;;;2.93;;
12535;SDS011;6334;48.696;2.114;2023-04-01T21:04:12;5.70;;;3.90;;
12535;SDS011;6334;48.696;2.114;2023-04-01T21:09:29;4.93;;;3.20;;
12535;SDS011;6334;48.696;2.114;2023-04-01T21:31:13;7.10;;;3.80;;
12535;SDS011;6334;48.696;2.114;2023-04-01T21:41:57;5.90;;;3.47;;
12535;SDS011;6334;48.696;2.114;2023-04-01T21:44:50;6.53;;;3.83;;
12535;SDS011;6334;48.696;2.114;2023-04-01T21:56:09;10.73;;;3.80;;
12535;SDS011;6334;48.696;2.114;2023-04-01T22:07:23;6.07;;;3.87;;
12535;SDS011;6334;48.696;2.114;2023-04-01T22:12:35;8.80;;;4.00;;
12535;SDS011;6334;48.696;2.114;2023-04-01T22:15:08;6.67;;;4.23;;
12535;SDS011;6334;48.696;2.114;2023-04-01T22:17:54;8.80;;;4.20;;
12535;SDS011;6334;48.696;2.114;2023-04-01T22:20:41;6.43;;;3.93;;
12535;SDS011;6334;48.696;2.114;2023-04-01T22:23:13;7.17;;;4.23;;
12535;SDS011;6334;48.696;2.114;2023-04-01T22:28:30;7.37;;;4.10;;
12535;SDS011;6334;48.696;2.114;2023-04-01T22:31:00;10.23;;;3.97;;
12535;SDS011;6334;48.696;2.114;2023-04-01T22:36:22;8.50;;;3.63;;
12535;SDS011;6334;48.696;2.114;2023-04-01T22:44:22;8.07;;;4.07;;
12535;SDS011;6334;48.696;2.114;2023-04-01T22:49:37;8.20;;;4.27;;
12535;SDS011;6334;48.696;2.114;2023-04-01T22:52:09;4.67;;;3.63;;
12535;SDS011;6334;48.696;2.114;2023-04-01T22:54:54;7.00;;;3.77;;
12535;SDS011;6334;48.696;2.114;2023-04-01T23:00:07;7.33;;;4.30;;
12535;SDS011;6334;48.696;2.114;2023-04-01T23:02:37;9.53;;;4.40;;
12535;SDS011;6334;48.696;2.114;2023-04-01T23:05:09;8.97;;;4.70;;
12535;SDS011;6334;48.696;2.114;2023-04-01T23:10:20;9.07;;;4.60;;
12535;SDS011;6334;48.696;2.114;2023-04-01T23:12:49;7.23;;;4.07;;
12535;SDS011;6334;48.696;2.114;2023-04-01T23:15:19;7.57;;;4.07;;
12535;SDS011;6334;48.696;2.114;2023-04-01T23:28:56;6.60;;;4.13;;
12535;SDS011;6334;48.696;2.114;2023-04-01T23:31:38;8.83;;;4.70;;
12535;SDS011;6334;48.696;2.114;2023-04-01T23:36:45;7.10;;;4.00;;
12535;SDS011;6334;48.696;2.114;2023-04-01T23:41:51;8.93;;;4.03;;
12535;SDS011;6334;48.696;2.114;2023-04-01T23:44:21;7.20;;;4.00;;
12535;SDS011;6334;48.696;2.114;2023-04-01T23:46:51;5.83;;;3.97;;
12535;SDS011;6334;48.696;2.114;2023-04-01T23:49:24;6.47;;;4.17;;
12535;SDS011;6334;48.696;2.114;2023-04-01T23:51:59;8.30;;;4.53;;
12535;SDS011;6334;48.696;2.114;2023-04-01T23:54:42;7.30;;;4.37;;
12535;SDS011;6334;48.696;2.114;2023-04-01T23:57:30;8.03;;;4.30;;
